Flight Track Log - Related Links

Times and Time Zones

All times are in EDT time to prevent confusion due to time zone crossing. See the ASQ4577 flight status page for this flight to view local times or setup timezone preferences in your user account.

Time Position Orientation Groundspeed Altitude Reporting Facility
EDT Latitude Longitude Course Direction KTS MPH feet Rate Location/Type
Tue 08:03:54 PM 41.3939 -81.8869 293° West 182 209 2,300  Level Cleveland Center
Tue 08:05:21 PM 41.4219 -81.9733 293° West 240 276 6,300 2,735 Climbing Cleveland Center
Tue 08:06:21 PM 41.4889 -81.9692 North 216 249 9,000 2,350 Climbing Cleveland Center
Tue 08:07:21 PM 41.5397 -81.8869 50° Northeast 240 276 11,000 1,500 Climbing Cleveland Center
Tue 08:08:21 PM 41.6033 -81.7911 48° Northeast 290 334 12,000 1,350 Climbing Cleveland Center
Tue 08:09:21 PM 41.6669 -81.6867 51° Northeast 345 397 13,700 1,700 Climbing Cleveland Center
Tue 08:10:21 PM 41.7347 -81.5850 48° Northeast 359 413 15,400 1,500 Climbing Cleveland Center
Tue 08:11:21 PM 41.8022 -81.4772 50° Northeast 365 420 16,700 1,250 Climbing Cleveland Center
Tue 08:12:21 PM 41.8469 -81.3636 62° Northeast 373 429 17,900 1,550 Climbing Cleveland Center
Tue 08:13:21 PM 41.8728 -81.2161 77° East 381 438 19,800 1,850 Climbing Cleveland Center
Tue 08:14:21 PM 41.8944 -81.0658 79° East 400 460 21,600 1,600 Climbing Cleveland Center
Tue 08:16:21 PM 41.9389 -80.7617 79° East 411 473 24,600 1,467 Climbing Cleveland Center
Tue 08:17:21 PM 41.9642 -80.5944 78° East 411 473 26,000 1,450 Climbing Cleveland Center
Tue 08:18:21 PM 41.9869 -80.4406 79° East 411 473 27,500 1,450 Climbing Cleveland Center
Tue 08:19:21 PM 42.0117 -80.2814 78° East 416 479 28,900 1,400 Climbing Cleveland Center
Tue 08:20:21 PM 42.0319 -80.1247 80° East 426 490 30,300 1,050 Climbing Cleveland Center
Tue 08:21:21 PM 42.0542 -79.9681 79° East 426 490 31,000 350 Climbing Cleveland Center
Tue 08:22:21 PM 42.0781 -79.7942 79° East 438 504 31,000  Level Cleveland Center
Tue 08:23:21 PM 42.1039 -79.6206 79° East 458 527 31,000  Level Cleveland Center
Tue 08:24:21 PM 42.1272 -79.4436 80° East 469 540 31,000  Level Cleveland Center
Tue 08:25:21 PM 42.1506 -79.2642 80° East 474 545 31,000  Level Cleveland Center
Tue 08:26:21 PM 42.1733 -79.0872 80° East 479 551 31,000  Level Cleveland Center
Tue 08:27:21 PM 42.1981 -78.9128 79° East 479 551 31,000  Level Cleveland Center
Tue 08:28:21 PM 42.2206 -78.7550 79° East 474 545 31,000  Level Cleveland Center
Tue 08:29:21 PM 42.2428 -78.5806 80° East 468 539 31,000  Level Cleveland Center
Tue 08:30:21 PM 42.2647 -78.4114 80° East 468 539 31,000  Level Cleveland Center
Tue 08:31:21 PM 42.2844 -78.2425 81° East 468 539 31,000  Level Cleveland Center
Tue 08:32:21 PM 42.3058 -78.0731 80° East 468 539 31,000  Level Cleveland Center
Tue 08:33:21 PM 42.3306 -77.8811 80° East 468 539 31,000  Level Cleveland Center
Tue 08:34:21 PM 42.3514 -77.7033 81° East 468 539 31,000  Level Cleveland Center
Tue 08:35:21 PM 42.3719 -77.5336 81° East 468 539 31,000  Level Cleveland Center
Tue 08:36:21 PM 42.3922 -77.3583 81° East 468 539 31,000  Level Cleveland Center
Tue 08:37:21 PM 42.4122 -77.1858 81° East 468 539 31,000 -271 Level Cleveland Center
Tue 08:38:56 PM 42.4436 -76.9086 81° East 462 532 30,300 -503 Descending Boston Center
Tue 08:39:56 PM 42.4631 -76.7356 81° East 462 532 29,700 -650 Descending Boston Center
Tue 08:40:56 PM 42.4819 -76.5594 82° East 462 532 29,000 -350 Descending Boston Center
Tue 08:41:56 PM 42.5008 -76.3803 82° East 467 537 29,000 -100 Level Boston Center
Tue 08:42:56 PM 42.5189 -76.2153 82° East 472 543 28,800 -1,050 Descending Boston Center
Tue 08:43:56 PM 42.5369 -76.0472 82° East 472 543 26,900 -1,900 Descending Boston Center
Tue 08:44:56 PM 42.5550 -75.8650 82° East 472 543 25,000 -1,900 Descending Boston Center
Tue 08:45:56 PM 42.5458 -75.6839 94° East 472 543 23,100 -2,000 Descending Boston Center
Tue 08:46:56 PM 42.5111 -75.5103 105° East 478 550 21,000 -2,250 Descending Boston Center
Tue 08:47:56 PM 42.4842 -75.3400 102° East 478 550 18,600 -2,350 Descending Boston Center
Tue 08:48:56 PM 42.4569 -75.1783 103° East 453 521 16,300 -2,300 Descending Boston Center
Tue 08:49:56 PM 42.4356 -75.0256 101° East 431 496 14,000 -2,150 Descending Boston Center
Tue 08:50:56 PM 42.4178 -74.8869 100° East 400 460 12,000 -1,579 Descending Boston Center
Tue 08:51:50 PM 42.4456 -74.7531 74° East 365 420 11,000 -500 Descending Boston Center
Tue 08:52:56 PM 42.4900 -74.6167 66° East 354 407 11,000  Level Boston Center
Tue 08:53:56 PM 42.5233 -74.5136 66° East 341 392 11,000 -750 Level Boston Center
Tue 08:54:56 PM 42.5586 -74.4047 66° East 301 346 9,500 -1,900 Descending Boston Center
Tue 08:55:56 PM 42.5831 -74.3097 71° East 267 307 7,200 -2,100 Descending Boston Center
Tue 08:56:56 PM 42.5969 -74.2142 79° East 262 302 5,300 -1,550 Descending Boston Center
Tue 08:57:56 PM 42.6131 -74.1244 76° East 251 289 4,100 -650 Descending Boston Center
Tue 08:58:56 PM 42.6244 -74.0514 78° East 231 266 4,000 -50 Descending Boston Center
Tue 08:59:56 PM 42.6361 -73.9697 79° East 226 260 4,000 -400 Level Boston Center
Tue 09:00:56 PM 42.6453 -73.8908 81° East 221 254 3,200 -650 Descending Boston Center
Tue 09:01:56 PM 42.6589 -73.8036 78° East 221 254 2,700 7,400 Descending Boston Center
Tue 09:02:56 PM 42.6703 -73.7250 79° East 221 254 18,000 7,650 Climbing Boston Center
Tue 09:03:56 PM 42.6817 -73.6489 78° East 221 254 18,000  Level Boston Center
Tue 09:04:56 PM 42.6928 -73.5700 79° East 221 254 18,000  Level Boston Center
Tue 09:05:56 PM 42.6972 -73.5389 79° East 221 254 18,000  Level Boston Center
Tue 09:07:00 PM 42.7268 -73.6883 285° West  Level Estimated

Login

Don't have an account? Register now (free) for customized features, flight alerts, and more!